Aérodrome :
LOGIN :

S'inscrire | Disclaimer

   EN    FR    IT 

 










Légende :    VFR   VFR Marginal   IFR   IFR Intensif   IFR Très Intensif
Visi : 
Plafond : 
>= 8 km
>= 3000ft
5 à 8 km
1000 à 3000 ft
1500m à 5 km
500 à 1000 ft
800 à 1500m
200 à 500 ft
< 800m
< 200 ft
Symboles :   Orages  Brouillard  Fortes neiges  Fortes précipitations  Vent > 20 kt
SIGMETs :   Divers  Orages  Givrage  Turbulence  Onde Orograph.  Cendres Volcan.






- Altitude de l'aérodrome : 1058 ft
- Code IATA : SCN


EDDR - Saarbrücken

DERNIER METAR :
  • 250120Z 23008KT 9999 FEW008 10/09 Q1001

METARs EXPIRÉS :
  • 250050Z 26008KT 9999 -SHRA FEW005 FEW017CB BKN046 10/09 Q1001 RESHRA
  • 250020Z 27016KT 8000 SHRA FEW005 BKN017CB 10/09 Q1001
  • 242350Z 20012KT 160V230 9999 BKN008 13/12 Q1000
  • 242320Z 19012KT 160V220 9999 FEW007 BKN013 13/12 Q1000
  • 242250Z 19011KT 170V240 9999 SCT007 BKN015 13/12 Q1000

TAF TAF EDDR
Valide du 25 à 00h jusqu'au 26 à 00h UTC


242300Z 2500/2524 22012KT 9999 FEW010 SCT030
TEMPO 2500/2503 SHRA BKN020CB
PROB30
TEMPO 2500/2503 20015G25KT 4000 TSRA BKN008 BKN015CB
TEMPO 2503/2508 BKN008
TEMPO 2509/2512 23015G25KT
TEMPO 2512/2524 23015G25KT SHRA BKN020CB



MET'MAP, la Météo Aéronautique d'un coup d'oeil ! - Copyright ORBIFLY Décembre 2007 - Disclaimer

ORBIFLY MET'MAP TEAM :

Programmation & Développement : Alexandra Zaïnal
Sur une idée originale de : Baudouin d'Aumeries
Assistance à la programmation : Marc-Olivier Méhu
Soutien technique & logistique : Manuel Goepfert

Contact : metmap@orbifly.com




SOURCES & CREDITS :

   NOAA